Tiempo atmosférico en la estación meteorológica de San Cristóbal de La Laguna,Llano de los Loros, Santa Cruz de Tenerife (868 m.)



Fecha
DESCASC
Temp. máxima en grados centígrados (hora)
DESCASC
Temp. mínima en grados centígrados (hora)
DESCASC
Temp. media en grados centígrados
DESCASC
Racha de viento máxima en m/sg (hora)
DESCASC
Velocidad máxima media en intervalos de 10 minutos(hora)
DESCASC
Precipitaciones diarias en mm
DESCASC
Precipitaciones de 00:00 a 06:00 en mm
DESCASC
Precipitaciones de 06:00 a 12:00 en mm
DESCASC
Precipitaciones de 12:00 a 18:00 en mm
DESCASC
Precipitaciones de 18:00 a 24:00 en mm
DESCASC
18-08-2019 35.5 (14:20) 21.7 (03:30) 28.6 13.33 (10:50) 7.5 (11:40) 0 0 0 0 0
17-08-2019 37.2 (14:30) 21 (04:40) 29.1 11.67 (06:10) 7.5 (06:10) 0 0 0 0 0
16-08-2019 36.5 (16:10) 17.9 (01:30) 27.2 11.11 (07:30) 6.11 (08:00) 0 0 0 0 0
15-08-2019 27.7 (16:40) 13.8 (00:00) 20.8 12.5 (01:10) 9.17 (01:20) 0 0 0 0 0
14-08-2019 22.6 (15:40) 13.5 (00:00) 18.1 16.94 (00:10) 11.94 (00:20) 0 0 0 0 0
13-08-2019 17.2 (13:30) 14 (00:00) 15.6 18.89 (20:00) 11.94 (08:00) 0 0 0 0 0
12-08-2019 -- (--) -- (--) -- 17.22 (00:10) 10.28 (20:20) 0 0 0 0 0
11-08-2019 -- (--) -- (--) -- -- (--) -- (--) -- 0.2 2 -- 0
10-08-2019 26.7 (10:20) 17.1 (00:00) 21.9 14.72 (22:20) 10 (22:10) 0 0 0 0 0
09-08-2019 30 (12:00) 20.9 (00:00) 25.4 9.72 (23:59) 7.5 (23:59) 0 0 0 0 0
08-08-2019 29.9 (15:00) 14.5 (00:00) 22.2 6.94 (23:20) 5.28 (22:30) 0 0 0 0 0
07-08-2019 28.6 (16:30) 14.7 (00:00) 21.7 16.11 (04:30) 10.56 (04:00) 0 0 0 0 0
06-08-2019 18.6 (17:10) 14.7 (00:00) 16.7 16.67 (13:30) 11.39 (14:50) 0 0 0 0 0
05-08-2019 19.5 (13:30) 14.8 (00:00) 17.2 18.06 (05:30) 11.11 (05:30) 0 0 0 0 0
04-08-2019 18.9 (13:50) 13.7 (00:00) 16.3 16.94 (05:00) 11.39 (05:00) 0 0 0 0 0
03-08-2019 17.7 (13:40) 13.9 (00:00) 15.8 18.33 (20:10) 11.67 (21:00) 0 0 0 0 0
02-08-2019 18.6 (14:20) 13.3 (00:00) 16 16.94 (18:20) 11.94 (22:00) 0 0 0 0 0
01-08-2019 19.8 (13:20) 13.1 (00:00) 16.4 19.72 (00:10) 12.22 (01:10) 0 0 0 0 0
31-07-2019 15.8 (16:50) 12.5 (00:00) 14.2 20.28 (05:50) 12.22 (21:50) 0.6 0.4 0.2 0 0
30-07-2019 16 (04:50) 13.6 (00:00) 14.8 20 (18:10) 11.94 (17:50) 17 4.2 12.2 0.4 0.2
29-07-2019 17 (12:40) 13.5 (00:00) 15.3 18.06 (12:50) 11.67 (16:40) 0.2 0.2 0 0 0
28-07-2019 17.7 (14:00) 13.9 (00:00) 15.8 20.28 (18:00) 13.06 (17:50) 1.8 0.6 1 0.2 0
27-07-2019 17.6 (16:40) 13.9 (00:00) 15.8 18.89 (03:50) 12.78 (02:40) 0 0 0 0 0
26-07-2019 27.1 (11:00) 15.1 (00:00) 21.1 17.22 (23:20) 11.39 (23:50) 0 0 0 0 0
25-07-2019 29 (13:30) 15.4 (00:00) 22.2 18.33 (22:50) 11.94 (22:50) 0 0 0 0 0
24-07-2019 26.8 (12:40) 13.4 (00:00) 20.1 17.22 (02:50) 12.5 (02:50) 0 0 0 0 0
23-07-2019 17.2 (15:00) 13.1 (00:00) 15.2 19.72 (06:30) 14.17 (03:30) 0 0 0 0 0
22-07-2019 18.1 (15:10) 13.6 (00:00) 15.9 16.11 (22:30) 11.67 (23:50) 0.2 0.2 0 0 0

Gráficas

Temp. máximas Temp. mínimas Temp. medias Precipitaciones Rachas de viento máximas Velocidades máximas media en intervalos de 10 minutos

Datos horarios

Fecha y hora oficial Temperatura (ºC) Velocidad del viento (km/h) Dirección del viento Racha (km/h) Dirección de racha Precipitación (mm) Presión (hPa) Tendencia (hPa) Humedad (%)
2019-08-20 23:00:00 15.6 30 Norte 48 Norte 0 -- -- 99
2019-08-20 22:00:00 15.6 27 Norte 42 Noroeste 0 -- -- 98
2019-08-20 21:00:00 15.5 27 Norte 44 Norte 0 -- -- 97
2019-08-20 20:00:00 16.3 28 Noroeste 44 Norte 0 -- -- 94
2019-08-20 19:00:00 19.3 24 Norte 36 Norte 0 -- -- 76
2019-08-20 18:00:00 22.9 11 Norte 23 Nordeste 0 -- -- 59
2019-08-20 17:00:00 24.7 8 Norte 26 Nordeste 0 -- -- 49
2019-08-20 16:00:00 24.2 10 Nordeste 27 Nordeste 0 -- -- 47
2019-08-20 15:00:00 24 10 Nordeste 34 Nordeste 0 -- -- 55
2019-08-20 14:00:00 23.3 16 Norte 33 Norte 0 -- -- 57
2019-08-20 13:00:00 23.3 19 Norte 36 Nordeste 0 -- -- 54
2019-08-20 12:00:00 23 13 Norte 30 Nordeste 0 -- -- 49
2019-08-20 11:00:00 21.7 15 Norte 41 Norte 0 -- -- 51
2019-08-20 10:00:00 21.4 15 Norte 35 Nordeste 0 -- -- 55
2019-08-20 09:00:00 21.6 27 Nordeste 44 Nordeste 0 -- -- 37
2019-08-20 08:00:00 20.7 17 Norte 43 Nordeste 0 -- -- 35
2019-08-20 07:00:00 21.4 21 Norte 39 Norte 0 -- -- 30
2019-08-20 06:00:00 22 21 Norte 38 Nordeste 0 -- -- 23
2019-08-20 05:00:00 21.9 16 Norte 30 Norte 0 -- -- 17
2019-08-20 04:00:00 21.1 18 Norte 29 Norte 0 -- -- 22
2019-08-20 03:00:00 21 19 Noroeste 31 Noroeste 0 -- -- 24
2019-08-20 02:00:00 21.9 21 Norte 37 Norte 0 -- -- 18
2019-08-20 01:00:00 22.3 26 Norte 39 Norte 0 -- -- 15
2019-08-20 00:00:00 22.6 26 Noroeste 33 Norte 0 -- -- 15
2019-08-19 23:00:00 23.7 22 Norte 30 Norte 0 -- -- 12
2019-08-19 22:00:00 25.2 17 Norte 23 Norte 0 -- -- 11
2019-08-19 21:00:00 25.8 14 Norte 21 Norte 0 -- -- 11
2019-08-19 20:00:00 26.4 13 Noroeste 21 Norte 0 -- -- 16
2019-08-19 19:00:00 28.9 13 Norte 26 Norte 0 -- -- 16
2019-08-19 18:00:00 30.1 14 Norte 25 Norte 0 -- -- 20
2019-08-19 17:00:00 33.8 5 Noroeste 13 Noroeste 0 -- -- 16
2019-08-19 16:00:00 34.5 4 Sudeste 14 Este 0 -- -- 27
2019-08-19 15:00:00 33.5 7 Sudeste 15 Sudeste 0 -- -- 30
2019-08-19 14:00:00 32.9 8 Sudeste 15 Sudeste 0 -- -- 32
2019-08-19 13:00:00 33.9 8 Sudeste 19 Este 0 -- -- 26
2019-08-19 12:00:00 34 9 Sudeste 15 Sudeste 0 -- -- 26
2019-08-19 11:00:00 32.2 4 Oeste 11 Sur 0 -- -- 22
2019-08-19 10:00:00 29.5 6 Sur 18 Sudeste 0 -- -- 22
2019-08-19 09:00:00 27.2 5 Sur 19 Oeste 0 -- -- 21
2019-08-19 08:00:00 25.1 6 Noroeste 28 Norte 0 -- -- 20
2019-08-19 07:00:00 25.6 10 Noroeste 40 Norte 0 -- -- 20
2019-08-19 06:00:00 25.8 19 Norte 43 Nordeste 0 -- -- 19
2019-08-19 05:00:00 26 28 Norte 45 Norte 0 -- -- 16
2019-08-19 04:00:00 26 24 Norte 39 Nordeste 0 -- -- 16
2019-08-19 03:00:00 25.1 8 Noroeste 28 Norte 0 -- -- 20
2019-08-19 02:00:00 26.3 12 Norte 36 Norte 0 -- -- 18
2019-08-19 01:00:00 24.2 6 Noroeste 19 Nordeste 0 -- -- 21
2019-08-19 00:00:00 23.1 4 Sudoeste 15 Sudoeste 0 -- -- 26
2019-08-18 23:00:00 23.6 4 Oeste 14 Sudoeste 0 -- -- 18
2019-08-18 22:00:00 23.7 5 Oeste 18 Oeste 0 -- -- 19
2019-08-18 21:00:00 24.6 7 Sudoeste 17 Sur 0 -- -- 16
2019-08-18 20:00:00 25.8 6 Sudoeste 39 Este 0 -- -- 25
2019-08-18 19:00:00 29.5 6 Sudeste 39 Nordeste 0 -- -- 14
2019-08-18 18:00:00 30.4 17 Este 30 Este 0 -- -- 24
2019-08-18 17:00:00 32.1 13 Sudeste 33 Este 0 -- -- 27
2019-08-18 16:00:00 33.9 11 Sudeste 21 Sudeste 0 -- -- 27
2019-08-18 15:00:00 34.3 10 Sudeste 26 Este 0 -- -- 29
2019-08-18 14:00:00 35.1 13 Sudeste 24 Sudeste 0 -- -- 28
2019-08-18 13:00:00 34.7 14 Sudeste 40 Este 0 -- -- 26
2019-08-18 12:00:00 32.4 22 Este 48 Este 0 -- -- 24
2019-08-18 11:00:00 30.5 26 Este 48 Este 0 -- -- 15
2019-08-18 10:00:00 28.1 7 Sur 19 Sur 0 -- -- 23
2019-08-18 09:00:00 26 7 Oeste 23 Sudoeste 0 -- -- 25
2019-08-18 08:00:00 23 8 Oeste 21 Sudeste 0 -- -- 25
2019-08-18 07:00:00 22.7 7 Sudoeste 22 Sur 0 -- -- 25
2019-08-18 06:00:00 23.8 6 Sudeste 47 Este 0 -- -- 24
2019-08-18 05:00:00 24.1 21 Sudeste 42 Sudeste 0 -- -- 27
2019-08-18 04:00:00 22.1 5 Sudoeste 19 Oeste 0 -- -- 40
2019-08-18 03:00:00 22.3 6 Oeste 23 Sur 0 -- -- 38
2019-08-18 02:00:00 22.6 6 Oeste 18 Sudoeste 0 -- -- 36
2019-08-18 01:00:00 24.1 6 Oeste 23 Sudoeste 0 -- -- 33
2019-08-18 00:00:00 24.5 5 Sur 19 Oeste 0 -- -- 29
2019-08-17 23:00:00 24.6 10 Sudoeste 21 Sudoeste 0 -- -- 28
2019-08-17 22:00:00 24.6 8 Sudoeste 17 Sudoeste 0 -- -- 29
2019-08-17 21:00:00 24 4 Oeste 23 Este 0 -- -- 33
2019-08-17 20:00:00 25.9 5 Sur 18 Sudeste 0 -- -- 33
2019-08-17 19:00:00 31.6 4 Oeste 12 Este 0 -- -- 24
2019-08-17 18:00:00 34 4 Sudeste 32 Este 0 -- -- 19
2019-08-17 17:00:00 33.3 11 Sudeste 39 Sudeste 0 -- -- 20
2019-08-17 16:00:00 35.2 13 Sudeste 24 Este 0 -- -- 26
2019-08-17 15:00:00 37.2 9 Sudeste 21 Sudeste 0 -- -- 23
2019-08-17 14:00:00 35.7 10 Sudeste 18 Sudeste 0 -- -- 24
2019-08-17 13:00:00 36.2 12 Sudeste 18 Sudeste 0 -- -- 25
2019-08-17 12:00:00 34.4 12 Sudeste 19 Este 0 -- -- 28
2019-08-17 11:00:00 32.6 12 Sudeste 18 Sudeste 0 -- -- 30
2019-08-17 10:00:00 31.3 13 Sudeste 30 Este 0 -- -- 30
2019-08-17 09:00:00 28.5 18 Este 32 Este 0 -- -- 28
2019-08-17 08:00:00 23.8 15 Este 33 Este 0 -- -- 32
2019-08-17 07:00:00 23.6 18 Este 42 Este 0 -- -- 33
2019-08-17 06:00:00 23.9 23 Este 41 Este 0 -- -- 34
2019-08-17 05:00:00 22.3 17 Este 25 Sudeste 0 -- -- 44
2019-08-17 04:00:00 23.7 14 Sudeste 42 Sudeste 0 -- -- 36
2019-08-17 03:00:00 24.4 7 Este 39 Este 0 -- -- 29
2019-08-17 02:00:00 23 8 Sudeste 29 Sudeste 0 -- -- 31
2019-08-17 01:00:00 22.5 5 Oeste 20 Sudeste 0 -- -- 40
2019-08-17 00:00:00 22.8 4 Oeste 10 Noroeste 0 -- -- 41
2019-08-16 23:00:00 23 5 Noroeste 15 Sur 0 -- -- 36
2019-08-16 22:00:00 24.2 5 Oeste 12 Oeste 0 -- -- 31
2019-08-16 21:00:00 26.4 5 Sudoeste 14 Sudoeste 0 -- -- 19
2019-08-16 20:00:00 26.6 5 Sudoeste 15 Oeste 0 -- -- 23
2019-08-16 19:00:00 30.1 4 Sudeste 24 Sudeste 0 -- -- 24
2019-08-16 18:00:00 32.1 10 Sudeste 21 Sudeste 0 -- -- 28
2019-08-16 17:00:00 34.3 12 Sudeste 21 Sudeste 0 -- -- 26
2019-08-16 16:00:00 35.7 11 Sudeste 17 Sudeste 0 -- -- 26
2019-08-16 15:00:00 35.3 9 Sudeste 18 Sudeste 0 -- -- 25
2019-08-16 14:00:00 34.6 13 Sudeste 23 Sudeste 0 -- -- 27
2019-08-16 13:00:00 34.1 12 Sudeste 33 Este 0 -- -- 27
2019-08-16 12:00:00 31.2 15 Sudeste 27 Este 0 -- -- 26
2019-08-16 11:00:00 28.8 11 Sudeste 25 Sudeste 0 -- -- 33
2019-08-16 10:00:00 24.6 6 Sudeste 22 Sudeste 0 -- -- 37
2019-08-16 09:00:00 24.4 10 Sudeste 40 Sudeste 0 -- -- 37
2019-08-16 08:00:00 22 22 Este 40 Sudeste 0 -- -- 38
2019-08-16 07:00:00 21 6 Oeste 23 Sur 0 -- -- 40
2019-08-16 06:00:00 21.7 7 Oeste 21 Nordeste 0 -- -- 32
2019-08-16 05:00:00 20.6 6 Sudoeste 18 Oeste 0 -- -- 38
2019-08-16 04:00:00 19.2 4 Norte 15 Noroeste 0 -- -- 47
2019-08-16 03:00:00 19.4 5 Oeste 24 Sudeste 0 -- -- 45
2019-08-16 02:00:00 19.4 7 Oeste 27 Sudeste 0 -- -- 44
2019-08-16 01:00:00 18 5 Oeste 21 Sudoeste 0 -- -- 62
2019-08-16 00:00:00 19.2 6 Oeste 18 Oeste 0 -- -- 56
2019-08-15 23:00:00 17.6 5 Oeste 39 Norte 0 -- -- 72
2019-08-15 22:00:00 17.3 26 Norte 42 Norte 0 -- -- 83
2019-08-15 21:00:00 17.8 22 Norte 42 Norte 0 -- -- 79
2019-08-15 20:00:00 19.3 8 Noroeste 36 Norte 0 -- -- 60
2019-08-15 19:00:00 20.6 17 Norte 38 Norte 0 -- -- 63
2019-08-15 18:00:00 21.3 16 Norte 32 Norte 0 -- -- 61
2019-08-15 17:00:00 25.7 6 Noroeste 26 Noroeste 0 -- -- 51
2019-08-15 16:00:00 27.2 6 Sudeste 30 Nordeste 0 -- -- 41
2019-08-15 15:00:00 23.4 15 Norte 37 Norte 0 -- -- 54
2019-08-15 14:00:00 24.4 8 Norte 30 Nordeste 0 -- -- 51
2019-08-15 13:00:00 23.9 10 Norte 34 Norte 0 -- -- 48
2019-08-15 12:00:00 24.7 7 Sudoeste 25 Noroeste 0 -- -- 41
2019-08-15 11:00:00 21.9 11 Noroeste 33 Norte 0 -- -- 51
2019-08-15 10:00:00 20.8 14 Norte 39 Norte 0 -- -- 42
2019-08-15 09:00:00 20 20 Norte 38 Norte 0 -- -- 41
2019-08-15 08:00:00 18.4 27 Norte 39 Norte 0 -- -- 46
2019-08-15 07:00:00 18.1 28 Norte 40 Norte 0 -- -- 42
2019-08-15 06:00:00 15.3 28 Norte 40 Norte 0 -- -- 68
2019-08-15 05:00:00 15.4 30 Norte 40 Norte 0 -- -- 64
2019-08-15 04:00:00 14 30 Norte 42 Norte 0 -- -- 93
2019-08-15 03:00:00 14.1 31 Noroeste 43 Norte 0 -- -- 98
2019-08-15 02:00:00 14.2 30 Norte 45 Norte 0 -- -- 97
2019-08-15 01:00:00 14.3 32 Norte 44 Norte 0 -- -- 95
2019-08-15 00:00:00 14.3 32 Norte 41 Norte 0 -- -- 96
2019-08-14 23:00:00 14.4 32 Norte 41 Norte 0 -- -- 96
2019-08-14 22:00:00 14.7 30 Norte 42 Norte 0 -- -- 95
2019-08-14 21:00:00 14.9 26 Norte 40 Norte 0 -- -- 90
2019-08-14 20:00:00 17.3 26 Norte 40 Norte 0 -- -- 68
2019-08-14 19:00:00 19.3 23 Norte 39 Norte 0 -- -- 65
2019-08-14 18:00:00 20.9 22 Norte 37 Noroeste 0 -- -- 44
2019-08-14 17:00:00 21.1 20 Norte 34 Norte 0 -- -- 43
2019-08-14 16:00:00 21.2 17 Norte 32 Norte 0 -- -- 59
2019-08-14 15:00:00 20.6 21 Norte 35 Norte 0 -- -- 60
2019-08-14 14:00:00 19.6 23 Norte 39 Norte 0 -- -- 63
2019-08-14 13:00:00 18.4 24 Noroeste 40 Norte 0 -- -- 76
2019-08-14 12:00:00 17.5 26 Noroeste 44 Noroeste 0 -- -- 83
2019-08-14 11:00:00 16.6 26 Norte 40 Norte 0 -- -- 86
2019-08-14 10:00:00 16.2 23 Norte 44 Norte 0 -- -- 87
2019-08-14 09:00:00 15 28 Norte 42 Noroeste 0 -- -- 94
2019-08-14 08:00:00 13.9 27 Norte 41 Norte 0 -- -- 99
2019-08-14 07:00:00 13.6 23 Norte 48 Norte 0 -- -- 99
2019-08-14 06:00:00 13.7 29 Noroeste 46 Norte 0 -- -- 99
2019-08-14 05:00:00 13.7 34 Noroeste 52 Norte 0 -- -- 99
2019-08-14 04:00:00 13.8 32 Noroeste 52 Noroeste 0 -- -- 99
2019-08-14 03:00:00 13.8 35 Noroeste 51 Norte 0 -- -- 98
2019-08-14 02:00:00 13.8 33 Norte 53 Norte 0 -- -- 98
2019-08-14 01:00:00 13.9 38 Noroeste 61 Noroeste 0 -- -- 98
2019-08-14 00:00:00 14.1 42 Noroeste 61 Noroeste 0 -- -- 97
2019-08-13 23:00:00 14.2 42 Noroeste 67 Norte -- -- -- 98
2019-08-13 22:00:00 14.4 32 Noroeste 65 Noroeste 0 -- -- 98
2019-08-13 21:00:00 14.3 34 Noroeste 64 Noroeste 0 -- -- 97
2019-08-13 20:00:00 14.6 32 Noroeste 68 Noroeste 0 -- -- 96
2019-08-13 19:00:00 15 28 Noroeste 59 Noroeste 0 -- -- 96
2019-08-13 18:00:00 15.8 29 Noroeste 57 Noroeste 0 -- -- 90
2019-08-13 17:00:00 16.3 38 Noroeste 68 Noroeste 0 -- -- 90
2019-08-13 16:00:00 16.5 39 Noroeste 63 Noroeste 0 -- -- 88
2019-08-13 15:00:00 16.6 37 Noroeste 63 Noroeste 0 -- -- 88
2019-08-13 14:00:00 17.2 37 Noroeste 58 Noroeste -- -- -- 85
2019-08-13 13:00:00 16.9 35 Noroeste 57 Norte 0 -- -- 87
2019-08-13 12:00:00 16.5 35 Norte 55 Noroeste 0 -- -- 88
2019-08-13 11:00:00 16.1 34 Noroeste 54 Norte 0 -- -- 90
2019-08-13 10:00:00 15.6 37 Norte 55 Norte 0 -- -- 93
2019-08-13 09:00:00 14.8 37 Norte 60 Norte 0 -- -- 98
2019-08-13 08:00:00 14.1 43 Norte 61 Norte 0 -- -- 100
2019-08-13 07:00:00 14.2 36 Noroeste 56 Norte 0 -- -- 100
2019-08-13 06:00:00 14.2 36 Noroeste 59 Noroeste 0 -- -- 100
2019-08-13 05:00:00 14.5 35 Noroeste 59 Noroeste 0 -- -- 100
2019-08-13 04:00:00 14.3 32 Noroeste 55 Noroeste 0 -- -- 100
2019-08-13 03:00:00 14.5 32 Noroeste 65 Noroeste 0 -- -- 99
2019-08-13 02:00:00 14.7 33 Noroeste 57 Noroeste 0 -- -- 98
2019-08-13 01:00:00 14.5 31 Noroeste 58 Noroeste 0 -- -- 96
2019-08-13 00:00:00 14.6 31 Noroeste 55 Norte 0 -- -- 97
2019-08-12 23:00:00 14.6 33 Noroeste 55 Noroeste 0 -- -- 97
2019-08-12 22:00:00 14.7 34 Noroeste 55 Noroeste -- -- -- 96
2019-08-12 21:00:00 14.8 33 Noroeste 55 Norte 0 -- -- 96
2019-08-12 20:00:00 15 36 Norte 54 Norte 0 -- -- 92
2019-08-12 19:00:00 16.1 31 Norte 54 Norte 0 -- -- 87
2019-08-12 18:00:00 16.2 33 Norte 53 Norte 0 -- -- 88
2019-08-12 17:00:00 17 31 Norte 51 Noroeste 0 -- -- 85
2019-08-12 16:00:00 17.6 32 Norte 50 Norte 0 -- -- 85
2019-08-12 15:00:00 17.7 30 Norte 50 Norte 0 -- -- 87
2019-08-12 14:00:00 17.9 27 Norte 54 Norte 0 -- -- 84
2019-08-12 13:00:00 17.6 33 Norte 53 Norte 0 -- -- 88
2019-08-12 12:00:00 17.5 27 Norte 46 Nordeste 0 -- -- 88
2019-08-12 11:00:00 16.5 28 Norte 57 Noroeste 0 -- -- 94
2019-08-12 10:00:00 15.9 24 Norte 48 Norte 0 -- -- 97
2019-08-12 09:00:00 15.5 23 Norte 50 Nordeste 0 -- -- 99
2019-08-12 08:00:00 15.4 21 Norte 49 Nordeste 0 -- -- 99
2019-08-12 07:00:00 14.9 25 Norte 50 Nordeste 0 -- -- 97
2019-08-12 06:00:00 14.9 28 Norte 48 Norte 0 -- -- 98
2019-08-12 05:00:00 15.2 29 Norte 53 Norte 0 -- -- 97
2019-08-12 04:00:00 15.3 34 Norte 55 Nordeste 0 -- -- 97
2019-08-12 03:00:00 15.2 31 Norte 53 Nordeste 0 -- -- 95
2019-08-12 02:00:00 15.3 29 Norte 57 Nordeste -- -- -- 95
2019-08-12 01:00:00 15.2 31 Norte 62 Nordeste 0 -- -- 93
2019-08-12 00:00:00 14.9 26 Norte 53 Norte 0 -- -- 90
2019-08-11 23:00:00 15 21 Noroeste 50 Norte 0 -- -- 95
2019-08-11 22:00:00 15.2 26 Norte 51 Norte 0 -- -- 98
2019-08-11 21:00:00 15.1 31 Norte 57 Noroeste 0 -- -- 97
2019-08-11 20:00:00 15.3 32 Norte 57 Noroeste 0 -- -- 95
2019-08-11 19:00:00 16 36 Norte 55 Norte 0 -- -- 93
2019-08-11 18:00:00 17 35 Norte 61 Noroeste 0 -- -- 88
2019-08-11 17:00:00 17 39 Norte 64 Norte 0 -- -- 87
2019-08-11 16:00:00 16.9 40 Norte 64 Norte 0 -- -- 91
2019-08-11 15:00:00 -- -- -- -- -- -- -- -- --
2019-08-11 14:00:00 17.3 38 Noroeste 57 Noroeste 0 -- -- 98
2019-08-11 13:00:00 17.3 33 Noroeste 53 Noroeste 0 -- -- 99
2019-08-11 12:00:00 17.3 29 Noroeste 64 Noroeste 0 -- -- 99
2019-08-11 11:00:00 17.1 32 Norte 55 Norte 0.2 -- -- 100
2019-08-11 10:00:00 17.5 32 Noroeste 62 Noroeste 0.4 -- -- 100
2019-08-11 09:00:00 17.7 30 Noroeste 48 Norte 0.6 -- -- 100
2019-08-11 08:00:00 17.9 25 Noroeste 51 Norte 0.8 -- -- 100
2019-08-11 07:00:00 17.2 27 Noroeste 53 Noroeste 0 -- -- 100
2019-08-11 06:00:00 17.1 27 Norte 53 Noroeste 0 -- -- 100
2019-08-11 05:00:00 17.3 25 Noroeste 48 Noroeste 0.2 -- -- 100
2019-08-11 04:00:00 17.6 15 Norte 47 Norte 0 -- -- 100
2019-08-11 03:00:00 17.3 19 Noroeste 48 Noroeste 0 -- -- 100
2019-08-11 02:00:00 16.9 30 Noroeste 55 Noroeste 0 -- -- 99
2019-08-11 01:00:00 17.1 29 Norte 52 Norte 0 -- -- 99
2019-08-11 00:00:00 17.1 31 Noroeste 51 Norte 0 -- -- 99
2019-08-10 23:00:00 17.2 34 Noroeste 53 Noroeste 0 -- -- 98
2019-08-10 22:00:00 17.2 34 Noroeste 51 Noroeste 0 -- -- 97
2019-08-10 21:00:00 17.6 32 Noroeste 46 Noroeste 0 -- -- 89
2019-08-10 20:00:00 18.2 27 Noroeste 42 Noroeste 0 -- -- 85
2019-08-10 19:00:00 19.1 23 Noroeste 37 Norte 0 -- -- 85
2019-08-10 18:00:00 22.5 20 Norte 31 Norte 0 -- -- 63
2019-08-10 17:00:00 22.7 15 Norte 33 Norte 0 -- -- 67
2019-08-10 16:00:00 24 9 Norte 23 Noroeste 0 -- -- 62
2019-08-10 15:00:00 25.2 9 Sudoeste 31 Norte 0 -- -- 58
2019-08-10 14:00:00 23.6 10 Noroeste 31 Noroeste 0 -- -- 62
2019-08-10 13:00:00 23.9 9 Norte 29 Norte 0 -- -- 60
2019-08-10 12:00:00 25.7 7 Este 22 Noroeste 0 -- -- 50
2019-08-10 11:00:00 25 6 Norte 19 Oeste 0 -- -- 44
2019-08-10 10:00:00 25.4 7 Nordeste 32 Norte 0 -- -- 38
2019-08-10 09:00:00 22.7 22 Norte 37 Norte 0 -- -- 30
2019-08-10 08:00:00 21.1 28 Norte 45 Norte 0 -- -- 33
2019-08-10 07:00:00 19.7 29 Norte 48 Norte 0 -- -- 43
2019-08-10 06:00:00 17.9 32 Norte 49 Norte 0 -- -- 69
2019-08-10 05:00:00 19 32 Norte 46 Norte 0 -- -- 53
2019-08-10 04:00:00 19.5 34 Norte 46 Norte 0 -- -- 50
2019-08-10 03:00:00 19.7 25 Norte 36 Norte 0 -- -- 36
2019-08-10 02:00:00 19.7 27 Norte 41 Norte 0 -- -- 37
2019-08-10 01:00:00 20.4 28 Norte 40 Norte 0 -- -- 26
2019-08-10 00:00:00 21.1 27 Norte 35 Norte 0 -- -- 27
2019-08-09 23:00:00 22.1 21 Norte 27 Norte 0 -- -- 21
2019-08-09 22:00:00 21.8 18 Norte 26 Norte 0 -- -- 21
2019-08-09 21:00:00 22.4 12 Norte 19 Norte 0 -- -- 20
2019-08-09 20:00:00 22.6 5 Norte 14 Norte 0 -- -- 32
2019-08-09 19:00:00 25.5 7 Nordeste 15 Noroeste 0 -- -- 34
2019-08-09 18:00:00 27.6 4 Este 10 Sudeste 0 -- -- 55
2019-08-09 17:00:00 27.4 5 Sudeste 12 Sudeste 0 -- -- 56
2019-08-09 16:00:00 28.6 6 Sudeste 16 Sudeste 0 -- -- 53
2019-08-09 15:00:00 26.8 8 Sudeste 18 Sur 0 -- -- 58
2019-08-09 14:00:00 27.2 8 Sudeste 16 Sudeste 0 -- -- 55
2019-08-09 13:00:00 28.8 12 Sudeste 17 Sur 0 -- -- 49
2019-08-09 12:00:00 30 7 Sudeste 11 Sudeste 0 -- -- 42
2019-08-09 11:00:00 28.4 4 Oeste 10 Sudeste 0 -- -- 26
2019-08-09 10:00:00 28.1 4 Sudeste 12 Norte 0 -- -- 23
2019-08-09 09:00:00 24.6 8 Norte 19 Noroeste 0 -- -- 19
2019-08-09 08:00:00 22.9 7 Noroeste 23 Norte 0 -- -- 16
2019-08-09 07:00:00 21.9 17 Norte 28 Noroeste 0 -- -- 22
2019-08-09 06:00:00 22.7 17 Norte 25 Norte 0 -- -- 18
2019-08-09 05:00:00 21.6 10 Noroeste 23 Noroeste 0 -- -- 22
2019-08-09 04:00:00 22 13 Noroeste 25 Noroeste 0 -- -- 23
2019-08-09 03:00:00 22.4 15 Noroeste 24 Noroeste 0 -- -- 23
2019-08-09 02:00:00 22.5 10 Norte 22 Norte 0 -- -- 23
2019-08-09 01:00:00 22.9 17 Norte 24 Norte 0 -- -- 22
2019-08-09 00:00:00 23.1 18 Norte 25 Norte 0 -- -- 25
2019-08-08 23:00:00 23.4 16 Norte 24 Norte 0 -- -- 20
2019-08-08 22:00:00 22.6 13 Norte 21 Norte 0 -- -- 23
2019-08-08 21:00:00 20.6 12 Noroeste 22 Norte 0 -- -- 30
2019-08-08 20:00:00 22.5 13 Noroeste 24 Noroeste 0 -- -- 28
2019-08-08 19:00:00 25.2 8 Oeste 17 Oeste 0 -- -- 51
2019-08-08 18:00:00 25.9 3 Sudeste 12 Sudoeste 0 -- -- 60
2019-08-08 17:00:00 26.6 4 Sudeste 12 Sudeste 0 -- -- 57
2019-08-08 16:00:00 26.1 8 Sudeste 16 Sudeste 0 -- -- 60
2019-08-08 15:00:00 29.9 6 Sur 12 Sudeste 0 -- -- 49
2019-08-08 14:00:00 27.7 6 Sudeste 15 Sudeste 0 -- -- 55
2019-08-08 13:00:00 27.4 8 Sudeste 12 Sur 0 -- -- 54
2019-08-08 12:00:00 25.8 7 Sudeste 14 Sudeste 0 -- -- 59
2019-08-08 11:00:00 26.3 6 Sudeste 10 Sudeste 0 -- -- 47
2019-08-08 10:00:00 26.1 6 Sudeste 12 Sudeste 0 -- -- 27
2019-08-08 09:00:00 22.2 9 Este 12 Este 0 -- -- 39
2019-08-08 08:00:00 15.9 3 Este 10 Este 0 -- -- 48
2019-08-08 07:00:00 16.1 9 Este 13 Este 0 -- -- 38
2019-08-08 06:00:00 15.7 3 Este 6 Este 0 -- -- 47
2019-08-08 05:00:00 16.2 0 Calma 17 Este 0 -- -- 42
2019-08-08 04:00:00 16.1 8 Este 11 Este 0 -- -- 49
2019-08-08 03:00:00 15.2 4 Nordeste 8 Este 0 -- -- 64
2019-08-08 02:00:00 14.7 0 Calma 6 Este 0 -- -- 60
2019-08-08 01:00:00 15.2 3 Noroeste 10 Nordeste 0 -- -- 56
2019-08-08 00:00:00 15.5 4 Nordeste 19 Este 0 -- -- 55
2019-08-07 23:00:00 16.7 7 Este 14 Este 0 -- -- 50
2019-08-07 22:00:00 16.6 5 Este 17 Norte 0 -- -- 52
2019-08-07 21:00:00 17.6 13 Norte 25 Norte 0 -- -- 63
2019-08-07 20:00:00 17.8 12 Norte 24 Norte 0 -- -- 72
2019-08-07 19:00:00 19.3 17 Norte 27 Norte 0 -- -- 75
2019-08-07 18:00:00 26.3 7 Sudeste 17 Sudeste 0 -- -- 53
2019-08-07 17:00:00 27.2 8 Sudeste 17 Sur 0 -- -- 51
2019-08-07 16:00:00 28.2 9 Sudeste 22 Norte 0 -- -- 45
2019-08-07 15:00:00 24.3 8 Norte 22 Norte 0 -- -- 58
2019-08-07 14:00:00 23.7 7 Norte 21 Norte 0 -- -- 58
2019-08-07 13:00:00 21.7 7 Norte 42 Norte 0 -- -- 68
2019-08-07 12:00:00 17.9 27 Norte 42 Norte 0 -- -- 85
2019-08-07 11:00:00 17.8 23 Norte 45 Noroeste 0 -- -- 88
2019-08-07 10:00:00 16.8 27 Norte 44 Norte 0 -- -- 92
2019-08-07 09:00:00 16.1 25 Norte 47 Norte 0 -- -- 94
2019-08-07 08:00:00 14.8 28 Norte 44 Norte 0 -- -- 99
2019-08-07 07:00:00 14.7 30 Norte 48 Norte 0 -- -- 98
2019-08-07 06:00:00 14.8 35 Norte 53 Norte 0 -- -- 99
2019-08-07 05:00:00 15.2 31 Noroeste 58 Noroeste 0 -- -- 99
2019-08-07 04:00:00 15 38 Noroeste 57 Norte 0 -- -- 97
2019-08-07 03:00:00 15.3 28 Noroeste 49 Noroeste 0 -- -- 98
2019-08-07 02:00:00 15.4 32 Noroeste 50 Norte 0 -- -- 98
2019-08-07 01:00:00 15.7 13 Norte 49 Noroeste 0 -- -- 99
2019-08-07 00:00:00 15.4 31 Norte 59 Noroeste 0 -- -- 97
2019-08-06 23:00:00 15.5 35 Norte 56 Noroeste 0 -- -- 98
2019-08-06 22:00:00 15.6 33 Noroeste 54 Noroeste 0 -- -- 98
2019-08-06 21:00:00 15.7 38 Noroeste 59 Norte 0 -- -- 97
2019-08-06 20:00:00 15.5 38 Norte 58 Norte 0 -- -- 94
2019-08-06 19:00:00 16.7 38 Norte 54 Noroeste 0 -- -- 88
2019-08-06 18:00:00 17.9 37 Noroeste 55 Noroeste 0 -- -- 86
2019-08-06 17:00:00 18.2 36 Noroeste 60 Noroeste 0 -- -- 85
2019-08-06 16:00:00 18.3 37 Noroeste 57 Noroeste 0 -- -- 86
2019-08-06 15:00:00 18.3 40 Noroeste 59 Noroeste 0 -- -- 85
2019-08-06 14:00:00 18.4 40 Noroeste 60 Noroeste 0 -- -- 85
2019-08-06 13:00:00 18.1 35 Noroeste 50 Noroeste 0 -- -- 86
2019-08-06 12:00:00 18 31 Noroeste 53 Noroeste 0 -- -- 88
2019-08-06 11:00:00 16.7 27 Noroeste 48 Noroeste 0 -- -- 93
2019-08-06 10:00:00 16.7 24 Noroeste 53 Noroeste 0 -- -- 90
2019-08-06 09:00:00 15.3 30 Noroeste 60 Noroeste 0 -- -- 99
2019-08-06 08:00:00 14.9 25 Noroeste 46 Noroeste 0 -- -- 100
2019-08-06 07:00:00 15 18 Noroeste 39 Norte 0 -- -- 100
2019-08-06 06:00:00 14.9 23 Noroeste 46 Noroeste 0 -- -- 100
2019-08-06 05:00:00 14.8 21 Noroeste 45 Noroeste 0 -- -- 100
2019-08-06 04:00:00 15 20 Noroeste 53 Noroeste 0 -- -- 100
2019-08-06 03:00:00 15.1 24 Noroeste 51 Noroeste 0 -- -- 100
2019-08-06 02:00:00 15 32 Noroeste 48 Noroeste 0 -- -- 99
2019-08-06 01:00:00 15.1 32 Noroeste 52 Noroeste 0 -- -- 99
2019-08-06 00:00:00 15.3 28 Noroeste 55 Noroeste 0 -- -- 100
2019-08-05 23:00:00 15.9 30 Noroeste 57 Noroeste 0 -- -- 99
2019-08-05 22:00:00 15.4 30 Noroeste 48 Noroeste 0 -- -- 98
2019-08-05 21:00:00 15.6 30 Noroeste 48 Noroeste 0 -- -- 98
2019-08-05 20:00:00 15.8 31 Noroeste 49 Noroeste 0 -- -- 97
2019-08-05 19:00:00 17 27 Noroeste 45 Noroeste 0 -- -- 90
2019-08-05 18:00:00 18.2 25 Norte 43 Norte 0 -- -- 85
2019-08-05 17:00:00 18 27 Norte 47 Norte 0 -- -- 86
2019-08-05 16:00:00 17.8 25 Norte 49 Noroeste 0 -- -- 88
2019-08-05 15:00:00 18.8 21 Norte 45 Norte 0 -- -- 84
2019-08-05 14:00:00 18.9 24 Noroeste 44 Norte 0 -- -- 81
2019-08-05 13:00:00 19.3 21 Noroeste 47 Noroeste 0 -- -- 77
2019-08-05 12:00:00 18.2 23 Noroeste 41 Noroeste 0 -- -- 82
2019-08-05 11:00:00 16.8 33 Noroeste 51 Noroeste -- -- -- 90
2019-08-05 10:00:00 16.3 33 Noroeste 56 Noroeste 0 -- -- 94
2019-08-05 09:00:00 15.1 33 Noroeste 55 Noroeste 0 -- -- 100
2019-08-05 08:00:00 15.5 27 Noroeste 53 Noroeste 0 -- -- 100
2019-08-05 07:00:00 15.7 31 Noroeste 59 Noroeste 0 -- -- 100
2019-08-05 06:00:00 15.3 36 Noroeste 65 Noroeste 0 -- -- 100
2019-08-05 05:00:00 15.1 36 Noroeste 60 Noroeste 0 -- -- 100
2019-08-05 04:00:00 15.3 25 Noroeste 52 Noroeste 0 -- -- 100
2019-08-05 03:00:00 15.5 27 Noroeste 53 Norte 0 -- -- 100
2019-08-05 02:00:00 15.2 15 Norte 57 Noroeste 0 -- -- 99
2019-08-05 01:00:00 15.2 21 Norte 53 Norte 0 -- -- 97
2019-08-05 00:00:00 15.5 31 Norte 54 Norte 0 -- -- 97
2019-08-04 23:00:00 15.5 26 Noroeste 59 Norte 0 -- -- 97
2019-08-04 22:00:00 15.4 23 Norte 55 Noroeste 0 -- -- 96
2019-08-04 21:00:00 15.4 29 Noroeste 55 Noroeste 0 -- -- 97
2019-08-04 20:00:00 15.6 31 Noroeste 53 Norte 0 -- -- 96
2019-08-04 19:00:00 16.1 24 Noroeste 46 Noroeste 0 -- -- 94
2019-08-04 18:00:00 16.5 22 Noroeste 52 Noroeste 0 -- -- 94
2019-08-04 17:00:00 16.8 26 Noroeste 51 Norte 0 -- -- 96
2019-08-04 16:00:00 17.4 24 Noroeste 50 Noroeste 0 -- -- 92
2019-08-04 15:00:00 18.6 24 Noroeste 45 Norte 0 -- -- 87
2019-08-04 14:00:00 18.7 26 Noroeste 49 Norte 0 -- -- 83
2019-08-04 13:00:00 18.2 30 Norte 50 Norte 0 -- -- 81
2019-08-04 12:00:00 17.2 33 Noroeste 55 Noroeste 0 -- -- 84
2019-08-04 11:00:00 16 32 Noroeste 59 Noroeste 0 -- -- 91
2019-08-04 10:00:00 15.7 31 Noroeste 49 Noroeste 0 -- -- 93
2019-08-04 09:00:00 15.2 33 Noroeste 54 Norte 0 -- -- 90
2019-08-04 08:00:00 14 38 Noroeste 53 Noroeste 0 -- -- 95
2019-08-04 07:00:00 14.3 27 Noroeste 50 Noroeste 0 -- -- 98
2019-08-04 06:00:00 14 34 Noroeste 55 Norte 0 -- -- 98
2019-08-04 05:00:00 13.7 41 Noroeste 61 Noroeste 0 -- -- 97
2019-08-04 04:00:00 13.8 35 Noroeste 51 Noroeste 0 -- -- 98
2019-08-04 03:00:00 13.9 35 Noroeste 54 Noroeste 0 -- -- 98
2019-08-04 02:00:00 14 37 Noroeste 56 Noroeste 0 -- -- 98
2019-08-04 01:00:00 13.9 37 Noroeste 58 Norte 0 -- -- 98
2019-08-04 00:00:00 14 37 Noroeste 54 Noroeste 0 -- -- 98
2019-08-03 23:00:00 14 40 Norte 56 Noroeste 0 -- -- 97
2019-08-03 22:00:00 14.2 39 Noroeste 60 Noroeste 0 -- -- 98
2019-08-03 21:00:00 14.1 42 Noroeste 66 Noroeste 0 -- -- 97
2019-08-03 20:00:00 14.7 39 Noroeste 60 Noroeste 0 -- -- 96
2019-08-03 19:00:00 15.8 38 Noroeste 58 Noroeste 0 -- -- 89
2019-08-03 18:00:00 16.3 37 Noroeste 54 Noroeste 0 -- -- 89
2019-08-03 17:00:00 16.9 39 Noroeste 57 Noroeste 0 -- -- 87
2019-08-03 16:00:00 16.8 39 Noroeste 54 Noroeste 0 -- -- 86
2019-08-03 15:00:00 17 37 Noroeste 55 Noroeste 0 -- -- 87
2019-08-03 14:00:00 17.4 36 Noroeste 54 Noroeste 0 -- -- 86
2019-08-03 13:00:00 17.2 36 Noroeste 55 Noroeste 0 -- -- 84
2019-08-03 12:00:00 16.5 38 Noroeste 51 Noroeste 0 -- -- 89
2019-08-03 11:00:00 15.7 33 Noroeste 53 Noroeste 0 -- -- 93
2019-08-03 10:00:00 15 28 Noroeste 55 Noroeste 0 -- -- 95
2019-08-03 09:00:00 14.3 32 Noroeste 50 Noroeste 0 -- -- 99
2019-08-03 08:00:00 14.1 26 Noroeste 48 Noroeste 0 -- -- 100
2019-08-03 07:00:00 14.1 25 Noroeste 46 Noroeste 0 -- -- 100
2019-08-03 06:00:00 14.1 17 Noroeste 42 Noroeste 0 -- -- 100
2019-08-03 05:00:00 14.1 23 Noroeste 42 Norte 0 -- -- 100
2019-08-03 04:00:00 14.1 25 Noroeste 52 Noroeste 0 -- -- 100
2019-08-03 03:00:00 14.3 32 Noroeste 50 Noroeste 0 -- -- 100
2019-08-03 02:00:00 14.6 30 Noroeste 54 Norte 0 -- -- 100
2019-08-03 01:00:00 14.2 35 Noroeste 51 Noroeste 0 -- -- 100
2019-08-03 00:00:00 14.3 35 Noroeste 60 Noroeste 0 -- -- 100
2019-08-02 23:00:00 14.3 42 Noroeste 59 Noroeste 0 -- -- 99
2019-08-02 22:00:00 14.3 43 Noroeste 61 Norte 0 -- -- 99
2019-08-02 21:00:00 14.5 43 Noroeste 60 Noroeste 0 -- -- 97
2019-08-02 20:00:00 14.9 39 Noroeste 57 Noroeste 0 -- -- 96
2019-08-02 19:00:00 15.5 38 Noroeste 61 Noroeste 0 -- -- 92
2019-08-02 18:00:00 16.8 37 Norte 55 Noroeste 0 -- -- 85
2019-08-02 17:00:00 17.7 35 Norte 50 Norte 0 -- -- 83
2019-08-02 16:00:00 18.5 20 Noroeste 39 Noroeste 0 -- -- 80
2019-08-02 15:00:00 18.2 22 Noroeste 37 Noroeste 0 -- -- 79
2019-08-02 14:00:00 18.2 15 Noroeste 37 Norte 0 -- -- 80
2019-08-02 13:00:00 17.9 19 Noroeste 49 Noroeste 0 -- -- 81
2019-08-02 12:00:00 18.2 14 Noroeste 35 Norte 0 -- -- 80
2019-08-02 11:00:00 16.3 16 Noroeste 47 Noroeste 0 -- -- 93
2019-08-02 10:00:00 16.3 21 Noroeste 48 Noroeste 0 -- -- 86
2019-08-02 09:00:00 14.5 26 Noroeste 42 Norte 0 -- -- 97
2019-08-02 08:00:00 14.1 20 Noroeste 50 Noroeste 0 -- -- 100
2019-08-02 07:00:00 14 33 Noroeste 50 Norte 0 -- -- 100
2019-08-02 06:00:00 13.7 34 Noroeste 53 Noroeste 0 -- -- 100
2019-08-02 05:00:00 13.8 33 Noroeste 50 Noroeste 0 -- -- 99
2019-08-02 04:00:00 14 36 Noroeste 54 Norte 0 -- -- 99
2019-08-02 03:00:00 13.5 37 Noroeste 56 Norte 0 -- -- 98
2019-08-02 02:00:00 13.3 38 Norte 54 Noroeste 0 -- -- 97
2019-08-02 01:00:00 13.6 39 Norte 55 Noroeste 0 -- -- 98
2019-08-02 00:00:00 14 37 Noroeste 59 Noroeste 0 -- -- 99
2019-08-01 23:00:00 13.8 42 Noroeste 59 Noroeste 0 -- -- 99
2019-08-01 22:00:00 13.9 41 Noroeste 59 Noroeste 0 -- -- 99
2019-08-01 21:00:00 14.3 40 Noroeste 60 Noroeste 0 -- -- 98
2019-08-01 20:00:00 14.9 42 Noroeste 60 Noroeste 0 -- -- 96
2019-08-01 19:00:00 15.4 40 Noroeste 57 Noroeste 0 -- -- 92
2019-08-01 18:00:00 16.5 41 Noroeste 64 Noroeste 0 -- -- 89
2019-08-01 17:00:00 17.1 26 Noroeste 46 Noroeste 0 -- -- 85
2019-08-01 16:00:00 16.2 13 Noroeste 40 Noroeste 0 -- -- 93
2019-08-01 15:00:00 16.5 10 Noroeste 30 Noroeste 0 -- -- 93
2019-08-01 14:00:00 16.8 8 Noroeste 29 Norte 0 -- -- 88
2019-08-01 13:00:00 18.4 10 Noroeste 42 Norte 0 -- -- 78
2019-08-01 12:00:00 18 10 Oeste 41 Noroeste 0 -- -- 82
2019-08-01 11:00:00 16 22 Noroeste 48 Oeste 0 -- -- 90
2019-08-01 10:00:00 15.2 25 Noroeste 46 Noroeste 0 -- -- 95
2019-08-01 09:00:00 14.8 30 Noroeste 59 Noroeste 0 -- -- 92
2019-08-01 08:00:00 13.5 38 Noroeste 57 Norte 0 -- -- 98
2019-08-01 07:00:00 13.3 34 Noroeste 55 Noroeste 0 -- -- 97
2019-08-01 06:00:00 13.8 33 Noroeste 62 Norte 0 -- -- 99
2019-08-01 05:00:00 13.4 39 Noroeste 63 Noroeste 0 -- -- 97
2019-08-01 04:00:00 13.3 39 Noroeste 60 Norte 0 -- -- 97
2019-08-01 03:00:00 13.4 41 Noroeste 63 Noroeste 0 -- -- 98
2019-08-01 02:00:00 13.2 44 Noroeste 63 Noroeste 0 -- -- 98
2019-08-01 01:00:00 13.5 44 Noroeste 71 Noroeste 0 -- -- 97
2019-08-01 00:00:00 13.6 42 Noroeste 64 Noroeste 0 -- -- 99
2019-07-31 23:00:00 13.8 41 Noroeste 68 Noroeste 0 -- -- 99
2019-07-31 22:00:00 13.8 42 Noroeste 69 Noroeste 0 -- -- 99
2019-07-31 21:00:00 13.9 37 Noroeste 67 Noroeste 0 -- -- 99
2019-07-31 20:00:00 14 37 Noroeste 65 Noroeste 0 -- -- 97
2019-07-31 19:00:00 14.4 39 Noroeste 64 Noroeste 0 -- -- 95
2019-07-31 18:00:00 14.9 37 Noroeste 69 Noroeste 0 -- -- 91
2019-07-31 17:00:00 15.4 39 Noroeste 64 Noroeste 0 -- -- 88
2019-07-31 16:00:00 15.3 36 Noroeste 70 Noroeste 0 -- -- 90
2019-07-31 15:00:00 14.7 30 Noroeste 63 Noroeste 0 -- -- 95
2019-07-31 14:00:00 14.5 20 Noroeste 50 Oeste 0 -- -- 99
2019-07-31 13:00:00 14.3 19 Noroeste 49 Noroeste 0 -- -- 100
2019-07-31 12:00:00 14.7 23 Noroeste 52 Noroeste 0 -- -- 95
2019-07-31 11:00:00 14.8 20 Noroeste 52 Noroeste 0 -- -- 90
2019-07-31 10:00:00 14.1 13 Noroeste 48 Noroeste 0 -- -- 96
2019-07-31 09:00:00 14.1 22 Noroeste 66 Noroeste 0.2 -- -- 90
2019-07-31 08:00:00 13.2 28 Noroeste 54 Noroeste 0 -- -- 100
2019-07-31 07:00:00 12.9 28 Noroeste 60 Noroeste 0 -- -- 98
2019-07-31 06:00:00 12.9 42 Noroeste 73 Noroeste 0 -- -- 97
2019-07-31 05:00:00 13 38 Noroeste 68 Oeste 0 -- -- 99
2019-07-31 04:00:00 13 28 Noroeste 66 Noroeste 0 -- -- 99
2019-07-31 03:00:00 13 28 Noroeste 69 Noroeste 0.2 -- -- 100
2019-07-31 02:00:00 13.6 31 Noroeste 64 Noroeste 0.2 -- -- 100
2019-07-31 01:00:00 13.2 30 Noroeste 67 Noroeste 0 -- -- 99
2019-07-31 00:00:00 13.8 29 Noroeste 66 Noroeste 0 -- -- 100
2019-07-30 23:00:00 13.6 26 Noroeste 63 Oeste 0 -- -- 100
2019-07-30 22:00:00 13.7 33 Noroeste 69 Noroeste 0 -- -- 100
2019-07-30 21:00:00 14.5 29 Noroeste 60 Noroeste 0.2 -- -- 100
2019-07-30 20:00:00 14.2 32 Noroeste 66 Noroeste 0 -- -- 100
2019-07-30 19:00:00 14.4 37 Noroeste 72 Noroeste 0 -- -- 99
2019-07-30 18:00:00 14.7 41 Noroeste 71 Noroeste 0 -- -- 96
2019-07-30 17:00:00 14.8 37 Noroeste 64 Noroeste 0 -- -- 97
2019-07-30 16:00:00 14.5 35 Noroeste 72 Noroeste 0 -- -- 100
2019-07-30 15:00:00 14.3 26 Noroeste 53 Noroeste 0.2 -- -- 100
2019-07-30 14:00:00 15 21 Noroeste 60 Noroeste 0 -- -- 100
2019-07-30 13:00:00 14.8 25 Norte 66 Noroeste 0.2 -- -- 100
2019-07-30 12:00:00 14.5 32 Noroeste 65 Norte 1.6 -- -- 100
2019-07-30 11:00:00 14.5 21 Noroeste 47 Noroeste 1.2 -- -- 100
2019-07-30 10:00:00 14.5 17 Noroeste 46 Noroeste 3 -- -- 100
2019-07-30 09:00:00 15.1 11 Noroeste 40 Noroeste 4.4 -- -- 100
2019-07-30 08:00:00 14.9 19 Noroeste 48 Noroeste 2 -- -- 100
2019-07-30 07:00:00 15.5 16 Noroeste 55 Oeste 0 -- -- 100
2019-07-30 06:00:00 15.6 10 Sudoeste 44 Noroeste 2.2 -- -- 100
2019-07-30 05:00:00 15.9 16 Norte 46 Noroeste 1.8 -- -- 100
2019-07-30 04:00:00 15.6 11 Noroeste 42 Oeste 0.2 -- -- 100
2019-07-30 03:00:00 15.5 14 Noroeste 50 Noroeste 0 -- -- 100
2019-07-30 02:00:00 15.5 13 Noroeste 47 Noroeste 0 -- -- 100
2019-07-30 01:00:00 15.6 14 Noroeste 52 Norte 0 -- -- 100
2019-07-30 00:00:00 15.5 15 Noroeste 45 Noroeste 0 -- -- 100
2019-07-29 23:00:00 15.4 19 Noroeste 45 Oeste 0 -- -- 100
2019-07-29 22:00:00 15.7 17 Noroeste 43 Noroeste 0 -- -- 100
2019-07-29 21:00:00 15.2 19 Noroeste 60 Noroeste 0 -- -- 99
2019-07-29 20:00:00 15.4 37 Norte 61 Norte 0 -- -- 97
2019-07-29 19:00:00 15.6 32 Noroeste 63 Noroeste 0 -- -- 96
2019-07-29 18:00:00 16 36 Norte 62 Norte 0 -- -- 92
2019-07-29 17:00:00 16.4 40 Noroeste 62 Noroeste 0 -- -- 89
2019-07-29 16:00:00 16.7 37 Noroeste 60 Noroeste 0 -- -- 87
2019-07-29 15:00:00 16.7 35 Noroeste 61 Noroeste 0 -- -- 89
2019-07-29 14:00:00 16.2 35 Noroeste 62 Noroeste 0 -- -- 92
2019-07-29 13:00:00 17 36 Noroeste 65 Noroeste 0 -- -- 89
2019-07-29 12:00:00 16 32 Noroeste 54 Noroeste 0 -- -- 91
2019-07-29 11:00:00 15.9 34 Noroeste 56 Noroeste 0 -- -- 88
2019-07-29 10:00:00 15 37 Noroeste 62 Noroeste 0 -- -- 94
2019-07-29 09:00:00 14.7 37 Noroeste 60 Noroeste 0 -- -- 93
2019-07-29 08:00:00 13.6 41 Noroeste 62 Noroeste 0 -- -- 99
2019-07-29 07:00:00 13.7 36 Noroeste 56 Noroeste 0 -- -- 100
2019-07-29 06:00:00 13.6 31 Noroeste 54 Noroeste 0 -- -- 100
2019-07-29 05:00:00 14.2 30 Noroeste 54 Noroeste 0 -- -- 100
2019-07-29 04:00:00 14.2 28 Noroeste 57 Noroeste 0 -- -- 100
2019-07-29 03:00:00 14.2 32 Noroeste 60 Noroeste 0.2 -- -- 100
2019-07-29 02:00:00 14.4 31 Noroeste 54 Noroeste 0 -- -- 100
2019-07-29 01:00:00 14.2 34 Noroeste 59 Noroeste 0 -- -- 100
2019-07-29 00:00:00 15.2 28 Noroeste 53 Noroeste 0 -- -- 100
2019-07-28 23:00:00 14.7 27 Noroeste 58 Noroeste 0 -- -- 100
2019-07-28 22:00:00 14.7 33 Noroeste 58 Noroeste 0 -- -- 100
2019-07-28 21:00:00 14.8 36 Noroeste 62 Noroeste 0 -- -- 100
2019-07-28 20:00:00 15 32 Noroeste 61 Noroeste 0 -- -- 100
2019-07-28 19:00:00 15.8 43 Noroeste 69 Noroeste 0 -- -- 99
2019-07-28 18:00:00 15.8 46 Noroeste 73 Noroeste 0 -- -- 99
2019-07-28 17:00:00 16.4 44 Noroeste 67 Noroeste 0 -- -- 99
2019-07-28 16:00:00 17.3 40 Noroeste 66 Noroeste 0 -- -- 98
2019-07-28 15:00:00 17.1 40 Noroeste 71 Noroeste 0 -- -- 99
2019-07-28 14:00:00 17.7 39 Noroeste 65 Noroeste 0.2 -- -- 99
2019-07-28 13:00:00 17.4 42 Noroeste 64 Noroeste -- -- -- 99
2019-07-28 12:00:00 17.2 44 Noroeste 64 Noroeste 0 -- -- 100
2019-07-28 11:00:00 16.7 39 Noroeste 60 Noroeste 0.4 -- -- 100
2019-07-28 10:00:00 16.8 36 Noroeste 57 Noroeste 0.4 -- -- 100
2019-07-28 09:00:00 16.2 35 Noroeste 55 Noroeste 0.2 -- -- 100
2019-07-28 08:00:00 15.6 38 Noroeste 66 Noroeste 0 -- -- 100
2019-07-28 07:00:00 15.2 40 Noroeste 59 Norte 0 -- -- 100
2019-07-28 06:00:00 14.9 38 Noroeste 59 Noroeste 0 -- -- 100
2019-07-28 05:00:00 15 37 Noroeste 57 Norte 0.2 -- -- 100
2019-07-28 04:00:00 15.2 35 Norte 59 Noroeste 0 -- -- 100
2019-07-28 03:00:00 15.5 33 Norte 55 Noroeste 0.2 -- -- 100
2019-07-28 02:00:00 15.4 34 Noroeste 53 Norte 0.2 -- -- 100
2019-07-28 01:00:00 14.9 29 Noroeste 54 Norte 0 -- -- 100
2019-07-28 00:00:00 13.9 35 Norte 54 Noroeste 0 -- -- 98
2019-07-27 23:00:00 14.1 38 Norte 61 Noroeste 0 -- -- 98
2019-07-27 22:00:00 14.4 39 Noroeste 56 Norte 0 -- -- 99
2019-07-26 11:00:00 27.1 9 Sudeste 17 Sur 0 -- -- 44
2019-07-26 10:00:00 23.7 7 Sur 29 Noroeste 0 -- -- 52
2019-07-26 09:00:00 21 5 Sudoeste 29 Norte 0 -- -- 56
2019-07-26 08:00:00 18.7 7 Norte 32 Norte 0 -- -- 55
2019-07-26 07:00:00 17.4 9 Noroeste 36 Norte 0 -- -- 65
2019-07-26 06:00:00 16.9 6 Sudoeste 37 Norte 0 -- -- 72
2019-07-26 05:00:00 18.2 21 Norte 48 Norte 0 -- -- 61
2019-07-26 04:00:00 16.4 7 Sudoeste 46 Norte 0 -- -- 76
2019-07-26 03:00:00 16.7 32 Norte 52 Nordeste 0 -- -- 76
2019-07-26 02:00:00 16.5 26 Norte 59 Norte 0 -- -- 87
2019-07-26 01:00:00 15.9 36 Norte 58 Norte 0 -- -- 98
2019-07-26 00:00:00 15.7 36 Norte 61 Norte 0 -- -- 93
2019-07-25 23:00:00 15.5 40 Noroeste 66 Norte 0 -- -- 97
2019-07-25 22:00:00 15.6 41 Noroeste 65 Norte 0 -- -- 96
2019-07-25 21:00:00 15.8 37 Noroeste 55 Norte 0 -- -- 87
2019-07-25 20:00:00 16.8 36 Noroeste 48 Norte 0 -- -- 85
2019-07-25 19:00:00 19.2 36 Norte 51 Norte 0 -- -- 57
2019-07-25 18:00:00 21.6 29 Norte 45 Norte 0 -- -- 47
2019-07-25 17:00:00 23.1 24 Norte 40 Norte 0 -- -- 46
2019-07-25 16:00:00 28.5 7 Sur 25 Norte 0 -- -- 24
2019-07-25 15:00:00 25.4 12 Norte 25 Norte 0 -- -- 33
2019-07-25 14:00:00 28.7 10 Sudeste 24 Este 0 -- -- 24
2019-07-25 13:00:00 27.8 8 Sur 24 Este 0 -- -- 27
2019-07-25 12:00:00 28 6 Sur 19 Sudeste 0 -- -- 27
2019-07-25 11:00:00 24.6 8 Sur 26 Sudoeste 0 -- -- 35
2019-07-25 10:00:00 23.2 6 Sur 14 Sudeste 0 -- -- 33
2019-07-25 09:00:00 21.2 4 Sur 30 Norte 0 -- -- 36
2019-07-25 08:00:00 17.5 9 Norte 26 Norte 0 -- -- 37
2019-07-25 07:00:00 16.9 7 Noroeste 35 Nordeste 0 -- -- 41
2019-07-25 06:00:00 17.6 15 Norte 40 Norte 0 -- -- 38
2019-07-25 05:00:00 17 20 Norte 42 Norte 0 -- -- 45
2019-07-25 04:00:00 16.9 33 Norte 47 Noroeste 0 -- -- 45
2019-07-25 03:00:00 17 26 Norte 44 Norte 0 -- -- 47
2019-07-25 02:00:00 16.9 30 Norte 45 Norte 0 -- -- 50
2019-07-25 01:00:00 16.4 30 Norte 48 Norte 0 -- -- 60
2019-07-25 00:00:00 16.6 35 Norte 54 Norte 0 -- -- 62
2019-07-24 23:00:00 16.9 36 Norte 53 Noroeste 0 -- -- 56
2019-07-24 22:00:00 17.1 37 Norte 52 Norte 0 -- -- 57
2019-07-24 21:00:00 17.3 36 Norte 49 Norte 0 -- -- 53
2019-07-24 20:00:00 18.9 32 Norte 43 Norte 0 -- -- 46
2019-07-24 19:00:00 20.5 28 Norte 40 Norte 0 -- -- 55
2019-07-24 18:00:00 22 21 Norte 32 Norte 0 -- -- 52
2019-07-24 17:00:00 23 17 Norte 27 Norte 0 -- -- 55
2019-07-24 16:00:00 23.3 17 Norte 30 Norte 0 -- -- 47
2019-07-24 15:00:00 24.6 7 Norte 31 Noroeste 0 -- -- 49
2019-07-24 14:00:00 24.1 6 Norte 24 Norte 0 -- -- 53
2019-07-24 13:00:00 25.6 9 Sudeste 26 Sudeste 0 -- -- 52
2019-07-24 12:00:00 24.9 9 Sudeste 22 Este 0 -- -- 57
2019-07-24 11:00:00 22.7 10 Sudeste 24 Sudeste 0 -- -- 62
2019-07-24 10:00:00 20.4 7 Sudeste 19 Noroeste 0 -- -- 69
2019-07-24 09:00:00 17.4 5 Oeste 25 Nordeste 0 -- -- 76
2019-07-24 08:00:00 14.6 9 Norte 36 Norte 0 -- -- 90
2019-07-24 07:00:00 13.6 22 Norte 37 Norte 0 -- -- 100
2019-07-24 06:00:00 13.6 28 Norte 50 Norte 0 -- -- 100
2019-07-24 05:00:00 13.5 36 Norte 57 Norte 0 -- -- 100
2019-07-24 04:00:00 13.7 40 Norte 62 Noroeste 0 -- -- 100
2019-07-24 03:00:00 14.4 43 Noroeste 62 Noroeste 0 -- -- 100
2019-07-24 02:00:00 13.8 41 Noroeste 59 Noroeste 0 -- -- 100
2019-07-24 01:00:00 14.2 44 Noroeste 59 Noroeste 0 -- -- 100
2019-07-24 00:00:00 14.1 43 Noroeste 63 Norte 0 -- -- 99
2019-07-23 23:00:00 14 46 Noroeste 64 Noroeste 0 -- -- 99
2019-07-23 22:00:00 14 45 Noroeste 61 Noroeste 0 -- -- 99
2019-07-23 21:00:00 14 44 Noroeste 62 Noroeste 0 -- -- 98
2019-07-23 20:00:00 14.5 42 Noroeste 56 Noroeste 0 -- -- 97
2019-07-23 19:00:00 15.4 39 Noroeste 57 Noroeste 0 -- -- 93
2019-07-23 18:00:00 15.9 37 Noroeste 59 Noroeste 0 -- -- 91
2019-07-23 17:00:00 17.2 38 Noroeste 53 Norte 0 -- -- 85
2019-07-23 16:00:00 17.1 37 Noroeste 55 Noroeste 0 -- -- 86
2019-07-23 15:00:00 17.2 33 Noroeste 53 Noroeste 0 -- -- 85
2019-07-23 14:00:00 16.6 33 Noroeste 46 Noroeste 0 -- -- 88
2019-07-23 13:00:00 16.8 24 Noroeste 45 Noroeste 0 -- -- 88
2019-07-23 12:00:00 16.6 24 Noroeste 50 Noroeste 0 -- -- 87
2019-07-23 11:00:00 15.3 35 Norte 51 Noroeste 0 -- -- 93
2019-07-23 10:00:00 14.3 40 Noroeste 64 Noroeste 0 -- -- 99
2019-07-23 09:00:00 13.5 45 Noroeste 64 Noroeste 0 -- -- 100
2019-07-23 08:00:00 13.4 46 Noroeste 70 Noroeste 0 -- -- 100
2019-07-23 07:00:00 13.1 47 Noroeste 71 Noroeste 0 -- -- 100
2019-07-23 06:00:00 13.2 46 Noroeste 68 Noroeste 0 -- -- 100
2019-07-23 05:00:00 13.3 46 Noroeste 67 Noroeste 0 -- -- 100
2019-07-23 04:00:00 13.4 50 Noroeste 68 Noroeste 0 -- -- 100
2019-07-23 03:00:00 13.1 49 Noroeste 68 Noroeste 0 -- -- 100
2019-07-23 02:00:00 13.2 47 Noroeste 60 Noroeste 0 -- -- 100
2019-07-23 01:00:00 13.6 44 Noroeste 61 Norte 0 -- -- 100
2019-07-23 00:00:00 13.7 40 Noroeste 58 Noroeste 0 -- -- 100
2019-07-22 23:00:00 13.7 40 Noroeste 58 Noroeste 0 -- -- 100
2019-07-22 22:00:00 13.8 40 Noroeste 55 Norte 0 -- -- 100
2019-07-22 21:00:00 14 39 Noroeste 53 Norte 0 -- -- 100
2019-07-22 20:00:00 14.2 36 Noroeste 49 Noroeste 0 -- -- 97
2019-07-22 19:00:00 15.4 33 Norte 45 Norte 0 -- -- 93
2019-07-22 18:00:00 16.6 33 Noroeste 47 Norte 0 -- -- 90
2019-07-22 17:00:00 17.6 32 Norte 44 Noroeste 0 -- -- 84
2019-07-22 16:00:00 17.7 31 Norte 42 Noroeste 0 -- -- 83
2019-07-22 15:00:00 17.8 26 Norte 47 Norte 0 -- -- 83
2019-07-22 14:00:00 16.7 33 Norte 47 Norte 0 -- -- 88
2019-07-22 13:00:00 16.6 27 Noroeste 43 Noroeste 0 -- -- 90
2019-07-22 12:00:00 16 28 Noroeste 51 Norte 0 -- -- 93
2019-07-22 11:00:00 15.1 35 Norte 52 Noroeste 0 -- -- 98
2019-07-22 10:00:00 14.3 33 Norte 51 Norte 0 -- -- 100
2019-07-22 09:00:00 14 33 Noroeste 50 Noroeste 0 -- -- 100
2019-07-22 08:00:00 13.6 33 Norte 48 Norte 0 -- -- 100
2019-07-22 07:00:00 13.9 33 Norte 49 Norte 0 -- -- 100
2019-07-22 06:00:00 13.8 31 Norte 48 Noroeste 0 -- -- 100
2019-07-22 05:00:00 14.2 31 Norte 43 Norte 0 -- -- 100
2019-07-22 04:00:00 14.1 30 Norte 54 Norte 0 -- -- 100
2019-07-22 03:00:00 14.2 35 Norte 49 Norte 0.2 -- -- 100
2019-07-22 02:00:00 14.4 33 Norte 46 Norte 0 -- -- 100
2019-07-22 01:00:00 14.4 35 Noroeste 48 Norte 0 -- -- 100
2019-07-22 00:00:00 14.8 33 Norte 48 Norte 0 -- -- 100